Time;durP1;ratioP1;P1;durP2;ratioP2;P2;SDS_P1;SDS_P2;PMS_P1;PMS_P2;Temp;Humidity;BMP_temperature;BMP_pressure;BME280_temperature;BME280_humidity;BME280_pressure;Samples;Min_cycle;Max_cycle;Signal;HPM_P1;HPM_P2
2022/09/12 00:00:10;;;;;;;;;;;;;;;;;;1022241;29;19969;-72
2022/09/12 00:00:40;;;;;;;;;;;;;;;;;;1021805;29;19911;-72
2022/09/12 00:01:10;;;;;;;;;;;;;;;;;;1022900;29;19911;-72
2022/09/12 00:01:40;;;;;;;;;;;;;;;;;;1023909;29;19910;-72
2022/09/12 00:02:11;;;;;;;;;;;;;;;;;;1023679;28;19944;-72
2022/09/12 00:02:41;;;;;;;;;;;;;;;;;;1023819;28;20005;-72
2022/09/12 00:03:11;;;;;;;;;;;;;;;;;;1023554;28;20422;-72
2022/09/12 00:03:41;;;;;;;;;;;;;;;;;;1023917;29;19911;-72
2022/09/12 00:04:12;;;;;;;;;;;;;;;;;;1023830;29;19957;-72
2022/09/12 00:04:42;;;;;;;;;;;;;;;;;;1021798;29;19918;-72
2022/09/12 00:05:12;;;;;;;;;;;;;;;;;;1020904;29;20011;-72
2022/09/12 00:05:43;;;;;;;;;;;;;;;;;;1021787;29;19910;-72
2022/09/12 00:06:13;;;;;;;;;;;;;;;;;;1021753;29;20047;-72
2022/09/12 00:06:44;;;;;;;;;;;;;;;;;;1021920;29;19919;-72
2022/09/12 00:07:14;;;;;;;;;;;;;;;;;;1021470;28;20342;-72
2022/09/12 00:07:44;;;;;;;;;;;;;;;;;;1022269;29;20270;-72
2022/09/12 00:08:14;;;;;;;;;;;;;;;;;;1022171;29;20002;-72
2022/09/12 00:08:45;;;;;;;;;;;;;;;;;;1022063;28;19917;-72
2022/09/12 00:09:15;;;;;;;;;;;;;;;;;;1021677;29;20442;-72
2022/09/12 00:09:45;;;;;;;;;;;;;;;;;;1023437;28;20343;-72
2022/09/12 00:10:16;;;;;;;;;;;;;;;;;;1023849;28;19918;-72
2022/09/12 00:10:46;;;;;;;;;;;;;;;;;;1027791;28;19913;-72
2022/09/12 00:11:16;;;;;;;;;;;;;;;;;;1027620;28;19992;-72
2022/09/12 00:11:47;;;;;;;;;;;;;;;;;;1021822;29;20363;-72
2022/09/12 00:12:17;;;;;;;;;;;;;;;;;;1021840;29;19911;-72
2022/09/12 00:12:47;;;;;;;;;;;;;;;;;;1021653;29;19910;-72
2022/09/12 00:13:17;;;;;;;;;;;;;;;;;;1021005;29;20057;-72
2022/09/12 00:13:48;;;;;;;;;;;;;;;;;;1022514;28;20005;-72
2022/09/12 00:14:18;;;;;;;;;;;;;;;;;;1021924;29;20002;-72
2022/09/12 00:14:48;;;;;;;;;;;;;;;;;;1025795;28;20338;-72
2022/09/12 00:15:19;;;;;;;;;;;;;;;;;;1025647;28;19957;-73
2022/09/12 00:15:49;;;;;;;;;;;;;;;;;;1022214;28;19918;-73
2022/09/12 00:16:19;;;;;;;;;;;;;;;;;;1021567;29;20006;-72
2022/09/12 00:16:50;;;;;;;;;;;;;;;;;;1021876;28;19919;-72
2022/09/12 00:17:20;;;;;;;;;;;;;;;;;;1021539;29;20040;-72
2022/09/12 00:17:50;;;;;;;;;;;;;;;;;;1021421;29;19911;-72
2022/09/12 00:18:21;;;;;;;;;;;;;;;;;;1023777;29;20354;-72
2022/09/12 00:18:52;;;;;;;;;;;;;;;;;;1023736;29;20274;-72
2022/09/12 00:19:22;;;;;;;;;;;;;;;;;;1022679;29;20375;-72
2022/09/12 00:19:52;;;;;;;;;;;;;;;;;;1022096;29;19911;-72
2022/09/12 00:20:22;;;;;;;;;;;;;;;;;;1021560;29;19911;-72
2022/09/12 00:20:53;;;;;;;;;;;;;;;;;;1022590;29;19921;-72
2022/09/12 00:21:23;;;;;;;;;;;;;;;;;;1021679;29;20302;-72
2022/09/12 00:21:53;;;;;;;;;;;;;;;;;;1021752;29;20009;-72
2022/09/12 00:22:24;;;;;;;;;;;;;;;;;;1022580;28;19962;-72
2022/09/12 00:22:54;;;;;;;;;;;;;;;;;;1023698;28;19972;-72
2022/09/12 00:23:24;;;;;;;;;;;;;;;;;;1027728;28;20385;-72
2022/09/12 00:23:55;;;;;;;;;;;;;;;;;;1023736;29;19917;-72
2022/09/12 00:24:25;;;;;;;;;;;;;;;;;;1021703;29;20001;-72
2022/09/12 00:24:56;;;;;;;;;;;;;;;;;;1022152;29;19917;-72
2022/09/12 00:25:26;;;;;;;;;;;;;;;;;;1021757;29;19915;-72
2022/09/12 00:25:56;;;;;;;;;;;;;;;;;;1021187;29;20409;-72
2022/09/12 00:26:27;;;;;;;;;;;;;;;;;;1022019;29;19921;-72
2022/09/12 00:26:57;;;;;;;;;;;;;;;;;;1021953;29;19951;-72
2022/09/12 00:27:27;;;;;;;;;;;;;;;;;;1022149;29;19917;-72
2022/09/12 00:27:58;;;;;;;;;;;;;;;;;;1022665;29;19911;-72
2022/09/12 00:28:28;;;;;;;;;;;;;;;;;;1020863;29;19918;-72
2022/09/12 00:28:58;;;;;;;;;;;;;;;;;;1021977;29;19937;-72
2022/09/12 00:29:28;;;;;;;;;;;;;;;;;;1021976;29;19910;-72
2022/09/12 00:29:59;;;;;;;;;;;;;;;;;;1022083;29;20264;-72
2022/09/12 00:30:29;;;;;;;;;;;;;;;;;;1022051;29;19910;-72
2022/09/12 00:31:00;;;;;;;;;;;;;;;;;;1021888;29;20012;-72
2022/09/12 00:31:30;;;;;;;;;;;;;;;;;;1023623;28;19936;-72
2022/09/12 00:32:00;;;;;;;;;;;;;;;;;;1023684;28;20004;-72
2022/09/12 00:32:30;;;;;;;;;;;;;;;;;;1023679;29;19917;-72
2022/09/12 00:33:01;;;;;;;;;;;;;;;;;;1027649;28;19910;-72
2022/09/12 00:33:31;;;;;;;;;;;;;;;;;;1025624;28;19910;-72
2022/09/12 00:34:01;;;;;;;;;;;;;;;;;;1021275;29;19917;-72
2022/09/12 00:34:31;;;;;;;;;;;;;;;;;;1022030;28;19910;-72
2022/09/12 00:35:02;;;;;;;;;;;;;;;;;;1021696;28;19957;-72
2022/09/12 00:35:32;;;;;;;;;;;;;;;;;;1022007;29;19911;-72
2022/09/12 00:36:02;;;;;;;;;;;;;;;;;;1021918;28;19938;-72
2022/09/12 00:36:33;;;;;;;;;;;;;;;;;;1021268;29;19917;-72
2022/09/12 00:37:03;;;;;;;;;;;;;;;;;;1021030;28;19915;-72
2022/09/12 00:37:33;;;;;;;;;;;;;;;;;;1023087;29;19965;-72
2022/09/12 00:38:03;;;;;;;;;;;;;;;;;;1023520;28;19915;-72
2022/09/12 00:38:37;;;;;;;;;;;;;;;;;;1026531;28;19910;-72
2022/09/12 00:39:08;;;;;;;;;;;;;;;;;;1027327;28;19910;-72
2022/09/12 00:39:38;;;;;;;;;;;;;;;;;;1025388;28;20366;-72
2022/09/12 00:40:08;;;;;;;;;;;;;;;;;;1022108;29;19910;-72
2022/09/12 00:40:38;;;;;;;;;;;;;;;;;;1021916;29;19910;-72
2022/09/12 00:41:09;;;;;;;;;;;;;;;;;;1021141;29;19914;-72
2022/09/12 00:41:39;;;;;;;;;;;;;;;;;;1021082;29;19912;-72
2022/09/12 00:42:09;;;;;;;;;;;;;;;;;;1022372;29;19914;-72
2022/09/12 00:42:39;;;;;;;;;;;;;;;;;;1023722;28;20382;-72
2022/09/12 00:43:10;;;;;;;;;;;;;;;;;;1023390;29;19910;-72
2022/09/12 00:43:40;;;;;;;;;;;;;;;;;;1027725;28;20699;-72
2022/09/12 00:44:10;;;;;;;;;;;;;;;;;;1022684;29;19922;-72
2022/09/12 00:44:41;;;;;;;;;;;;;;;;;;1021861;29;20461;-72
2022/09/12 00:45:11;;;;;;;;;;;;;;;;;;1021339;29;20040;-72
2022/09/12 00:45:41;;;;;;;;;;;;;;;;;;1021709;29;19918;-72
2022/09/12 00:46:11;;;;;;;;;;;;;;;;;;1025411;28;19921;-72
2022/09/12 00:46:42;;;;;;;;;;;;;;;;;;1025803;28;19921;-72
2022/09/12 00:47:12;;;;;;;;;;;;;;;;;;1020438;29;19910;-72
2022/09/12 00:47:42;;;;;;;;;;;;;;;;;;1022054;29;19962;-72
2022/09/12 00:48:13;;;;;;;;;;;;;;;;;;1021901;29;19911;-72
2022/09/12 00:48:43;;;;;;;;;;;;;;;;;;1022054;29;19914;-72
2022/09/12 00:49:14;;;;;;;;;;;;;;;;;;1021614;29;19954;-72
2022/09/12 00:49:44;;;;;;;;;;;;;;;;;;1021771;29;19911;-72
2022/09/12 00:50:14;;;;;;;;;;;;;;;;;;1021232;29;19911;-72
2022/09/12 00:50:44;;;;;;;;;;;;;;;;;;1021612;29;20370;-72
2022/09/12 00:51:15;;;;;;;;;;;;;;;;;;1021520;29;19914;-72
2022/09/12 00:51:45;;;;;;;;;;;;;;;;;;1023121;29;20417;-72
2022/09/12 00:52:15;;;;;;;;;;;;;;;;;;1021781;29;19917;-72
2022/09/12 00:52:45;;;;;;;;;;;;;;;;;;1021917;29;20298;-72
2022/09/12 00:53:16;;;;;;;;;;;;;;;;;;1022593;29;19911;-72
2022/09/12 00:53:46;;;;;;;;;;;;;;;;;;1021564;29;20437;-72
2022/09/12 00:54:17;;;;;;;;;;;;;;;;;;1021921;28;19917;-72
2022/09/12 00:54:47;;;;;;;;;;;;;;;;;;1021794;28;20409;-72
2022/09/12 00:55:17;;;;;;;;;;;;;;;;;;1020864;28;19938;-72
2022/09/12 00:55:48;;;;;;;;;;;;;;;;;;1021318;28;20277;-72
2022/09/12 00:56:27;;;;;;;;;;;;;;;;;;1021752;28;19973;-72
2022/09/12 00:56:57;;;;;;;;;;;;;;;;;;1021892;28;19954;-72
2022/09/12 00:57:27;;;;;;;;;;;;;;;;;;1021955;28;19911;-72
2022/09/12 00:57:57;;;;;;;;;;;;;;;;;;1021893;28;20337;-72
2022/09/12 00:58:28;;;;;;;;;;;;;;;;;;1021933;28;19918;-72
2022/09/12 00:58:58;;;;;;;;;;;;;;;;;;1021940;28;19915;-72
2022/09/12 00:59:28;;;;;;;;;;;;;;;;;;1021860;28;20385;-72
2022/09/12 00:59:59;;;;;;;;;;;;;;;;;;1021898;28;19973;-72
2022/09/12 01:00:29;;;;;;;;;;;;;;;;;;1021885;28;19911;-72
2022/09/12 01:00:59;;;;;;;;;;;;;;;;;;1021957;28;19911;-72
2022/09/12 01:01:30;;;;;;;;;;;;;;;;;;1021810;29;20378;-72
2022/09/12 01:02:00;;;;;;;;;;;;;;;;;;1021856;28;20013;-72
2022/09/12 01:02:30;;;;;;;;;;;;;;;;;;1021753;29;19911;-72
2022/09/12 01:03:00;;;;;;;;;;;;;;;;;;1021632;29;19936;-72
2022/09/12 01:03:31;;;;;;;;;;;;;;;;;;1021704;29;19911;-72
2022/09/12 01:04:01;;;;;;;;;;;;;;;;;;1021991;29;19961;-72
2022/09/12 01:04:31;;;;;;;;;;;;;;;;;;1021969;29;19946;-72
2022/09/12 01:05:02;;;;;;;;;;;;;;;;;;1021773;29;19921;-72
2022/09/12 01:05:32;;;;;;;;;;;;;;;;;;1021427;29;19918;-72
2022/09/12 01:06:02;;;;;;;;;;;;;;;;;;1021585;29;19917;-72
2022/09/12 01:06:32;;;;;;;;;;;;;;;;;;1023450;29;19977;-72
2022/09/12 01:07:03;;;;;;;;;;;;;;;;;;1023471;29;19910;-72
2022/09/12 01:07:33;;;;;;;;;;;;;;;;;;1027682;28;20419;-72
2022/09/12 01:08:03;;;;;;;;;;;;;;;;;;1027532;28;19952;-72
2022/09/12 01:08:34;;;;;;;;;;;;;;;;;;1023694;29;19914;-72
2022/09/12 01:09:04;;;;;;;;;;;;;;;;;;1023165;29;20004;-72
2022/09/12 01:09:34;;;;;;;;;;;;;;;;;;1023490;29;19953;-73
2022/09/12 01:10:04;;;;;;;;;;;;;;;;;;1012310;29;19926;-72
2022/09/12 01:10:35;;;;;;;;;;;;;;;;;;1027494;28;19910;-72
2022/09/12 01:11:05;;;;;;;;;;;;;;;;;;1023560;28;20386;-72
2022/09/12 01:11:35;;;;;;;;;;;;;;;;;;1023698;29;19910;-72
2022/09/12 01:12:06;;;;;;;;;;;;;;;;;;1023409;28;19914;-72
2022/09/12 01:12:36;;;;;;;;;;;;;;;;;;1018706;29;19914;-72
2022/09/12 01:13:07;;;;;;;;;;;;;;;;;;1023537;29;19910;-72
2022/09/12 01:13:37;;;;;;;;;;;;;;;;;;1023321;28;19972;-72
2022/09/12 01:14:07;;;;;;;;;;;;;;;;;;1021687;29;19966;-72
2022/09/12 01:14:38;;;;;;;;;;;;;;;;;;1021967;29;20282;-72
2022/09/12 01:15:08;;;;;;;;;;;;;;;;;;1021798;29;20291;-72
2022/09/12 01:15:38;;;;;;;;;;;;;;;;;;1021467;29;20001;-73
2022/09/12 01:16:08;;;;;;;;;;;;;;;;;;1021333;29;19952;-72
2022/09/12 01:16:39;;;;;;;;;;;;;;;;;;1021068;29;20259;-72
2022/09/12 01:17:09;;;;;;;;;;;;;;;;;;1021426;28;19911;-73
2022/09/12 01:17:39;;;;;;;;;;;;;;;;;;1021771;29;20381;-72
2022/09/12 01:18:10;;;;;;;;;;;;;;;;;;1021830;29;19922;-72
2022/09/12 01:18:41;;;;;;;;;;;;;;;;;;1021917;29;20287;-72
2022/09/12 01:19:11;;;;;;;;;;;;;;;;;;1021818;29;20375;-72
2022/09/12 01:19:41;;;;;;;;;;;;;;;;;;1020441;29;19961;-72
2022/09/12 01:20:12;;;;;;;;;;;;;;;;;;1019635;29;19973;-72
2022/09/12 01:20:42;;;;;;;;;;;;;;;;;;1021359;29;19911;-72
2022/09/12 01:21:12;;;;;;;;;;;;;;;;;;1021547;29;19910;-72
2022/09/12 01:21:42;;;;;;;;;;;;;;;;;;1021474;29;19910;-72
2022/09/12 01:22:13;;;;;;;;;;;;;;;;;;1021633;28;19910;-72
2022/09/12 01:22:43;;;;;;;;;;;;;;;;;;1021721;28;19969;-72
2022/09/12 01:23:13;;;;;;;;;;;;;;;;;;1021705;28;19914;-72
2022/09/12 01:23:44;;;;;;;;;;;;;;;;;;1020755;28;19918;-72
2022/09/12 01:24:14;;;;;;;;;;;;;;;;;;1021851;28;19942;-75
2022/09/12 01:24:44;;;;;;;;;;;;;;;;;;1021572;28;20020;-72
2022/09/12 01:25:16;;;;;;;;;;;;;;;;;;1021900;29;19911;-74
2022/09/12 01:25:46;;;;;;;;;;;;;;;;;;1022613;28;19914;-74
2022/09/12 01:26:16;;;;;;;;;;;;;;;;;;1020043;29;19914;-74
2022/09/12 01:26:47;;;;;;;;;;;;;;;;;;1022942;29;19918;-74
2022/09/12 01:27:17;;;;;;;;;;;;;;;;;;1025369;28;19910;-72
2022/09/12 01:27:47;;;;;;;;;;;;;;;;;;1023630;28;19915;-73
2022/09/12 01:28:18;;;;;;;;;;;;;;;;;;1028287;28;20330;-74
2022/09/12 01:28:48;;;;;;;;;;;;;;;;;;1027009;28;19945;-73
2022/09/12 01:29:19;;;;;;;;;;;;;;;;;;1022376;29;19907;-73
2022/09/12 01:29:49;;;;;;;;;;;;;;;;;;1026464;29;19910;-73
2022/09/12 01:30:19;;;;;;;;;;;;;;;;;;1025716;29;19915;-73
2022/09/12 01:30:51;;;;;;;;;;;;;;;;;;1025697;29;19977;-73
2022/09/12 01:31:21;;;;;;;;;;;;;;;;;;1025312;29;19918;-73
2022/09/12 01:31:51;;;;;;;;;;;;;;;;;;1026518;28;19917;-73
2022/09/12 01:32:22;;;;;;;;;;;;;;;;;;1021107;29;19910;-73
2022/09/12 01:32:52;;;;;;;;;;;;;;;;;;1019880;29;20408;-73
2022/09/12 01:33:22;;;;;;;;;;;;;;;;;;1020113;29;19918;-73
2022/09/12 01:33:52;;;;;;;;;;;;;;;;;;1021406;29;19916;-73
2022/09/12 01:34:25;;;;;;;;;;;;;;;;;;1020544;28;20367;-73
2022/09/12 01:34:55;;;;;;;;;;;;;;;;;;1019800;28;19988;-73
2022/09/12 01:35:25;;;;;;;;;;;;;;;;;;1019161;28;20021;-74
2022/09/12 01:35:56;;;;;;;;;;;;;;;;;;1018320;29;19915;-74
2022/09/12 01:36:26;;;;;;;;;;;;;;;;;;1006838;29;20254;-74
2022/09/12 01:36:56;;;;;;;;;;;;;;;;;;1007531;29;20157;-74
2022/09/12 01:37:27;;;;;;;;;;;;;;;;;;1011805;28;20372;-73
2022/09/12 01:37:57;;;;;;;;;;;;;;;;;;1012825;28;20189;-74
2022/09/12 01:38:28;;;;;;;;;;;;;;;;;;1012636;28;19922;-74
2022/09/12 01:38:58;;;;;;;;;;;;;;;;;;1009474;28;20627;-74
2022/09/12 01:39:29;;;;;;;;;;;;;;;;;;1007367;29;20204;-74
2022/09/12 01:39:59;;;;;;;;;;;;;;;;;;1007240;29;20105;-74
2022/09/12 01:40:30;;;;;;;;;;;;;;;;;;1007901;29;20606;-74
2022/09/12 01:41:00;;;;;;;;;;;;;;;;;;1007852;29;19914;-74
2022/09/12 01:41:30;;;;;;;;;;;;;;;;;;1005362;29;20166;-73
2022/09/12 01:42:01;;;;;;;;;;;;;;;;;;1004699;29;20454;-74
2022/09/12 01:42:31;;;;;;;;;;;;;;;;;;1005531;29;20277;-74
2022/09/12 01:43:02;;;;;;;;;;;;;;;;;;1007500;29;20317;-74
2022/09/12 01:43:33;;;;;;;;;;;;;;;;;;1010827;29;20660;-74
2022/09/12 01:44:03;;;;;;;;;;;;;;;;;;1007929;29;20390;-74
2022/09/12 01:44:34;;;;;;;;;;;;;;;;;;1007956;28;20170;-74
2022/09/12 01:45:04;;;;;;;;;;;;;;;;;;1008165;28;20884;-74
2022/09/12 01:45:34;;;;;;;;;;;;;;;;;;1008680;29;19921;-74
2022/09/12 01:46:04;;;;;;;;;;;;;;;;;;1007502;29;20685;-74
2022/09/12 01:46:35;;;;;;;;;;;;;;;;;;1008269;29;19969;-74
2022/09/12 01:47:07;;;;;;;;;;;;;;;;;;1007598;28;20258;-74
2022/09/12 01:47:37;;;;;;;;;;;;;;;;;;1007964;29;20282;-74
2022/09/12 01:48:08;;;;;;;;;;;;;;;;;;1010154;29;19954;-74
2022/09/12 01:48:39;;;;;;;;;;;;;;;;;;1011236;28;20364;-74
2022/09/12 01:49:10;;;;;;;;;;;;;;;;;;1014079;28;20747;-74
2022/09/12 01:49:40;;;;;;;;;;;;;;;;;;1009421;29;20373;-74
2022/09/12 01:50:10;;;;;;;;;;;;;;;;;;1007984;29;19915;-74
2022/09/12 01:50:40;;;;;;;;;;;;;;;;;;1009116;29;20524;-74
2022/09/12 01:51:11;;;;;;;;;;;;;;;;;;1009679;29;19914;-74
2022/09/12 01:51:41;;;;;;;;;;;;;;;;;;1008998;29;20159;-74
2022/09/12 01:52:11;;;;;;;;;;;;;;;;;;1010044;28;20370;-74
2022/09/12 01:52:42;;;;;;;;;;;;;;;;;;1008806;29;20199;-74
2022/09/12 01:53:12;;;;;;;;;;;;;;;;;;1009944;28;19917;-74
2022/09/12 01:53:42;;;;;;;;;;;;;;;;;;1010784;28;19910;-74
2022/09/12 01:54:13;;;;;;;;;;;;;;;;;;1009569;29;20337;-74
2022/09/12 01:54:43;;;;;;;;;;;;;;;;;;1010256;29;19914;-74
2022/09/12 01:55:13;;;;;;;;;;;;;;;;;;1010043;29;20013;-74
2022/09/12 01:55:44;;;;;;;;;;;;;;;;;;1008867;29;20060;-74
2022/09/12 01:56:14;;;;;;;;;;;;;;;;;;1010703;29;20082;-74
2022/09/12 01:56:44;;;;;;;;;;;;;;;;;;1010013;29;19994;-74
2022/09/12 01:57:15;;;;;;;;;;;;;;;;;;1011965;28;19910;-74
2022/09/12 01:57:45;;;;;;;;;;;;;;;;;;1010657;29;20021;-74
2022/09/12 01:58:16;;;;;;;;;;;;;;;;;;1009175;29;19929;-74
2022/09/12 01:58:46;;;;;;;;;;;;;;;;;;1011824;29;20925;-74
2022/09/12 01:59:16;;;;;;;;;;;;;;;;;;1010085;29;19914;-74
2022/09/12 01:59:47;;;;;;;;;;;;;;;;;;1013562;28;20449;-74
2022/09/12 02:00:17;;;;;;;;;;;;;;;;;;1011694;28;19965;-74
2022/09/12 02:00:48;;;;;;;;;;;;;;;;;;1011175;29;20071;-74
2022/09/12 02:01:18;;;;;;;;;;;;;;;;;;1011268;29;19973;-74
2022/09/12 02:01:48;;;;;;;;;;;;;;;;;;1011149;28;19922;-74
2022/09/12 02:02:19;;;;;;;;;;;;;;;;;;1010832;28;19919;-74
2022/09/12 02:02:50;;;;;;;;;;;;;;;;;;1011308;29;20292;-74
2022/09/12 02:03:21;;;;;;;;;;;;;;;;;;1011108;28;19918;-74
2022/09/12 02:03:51;;;;;;;;;;;;;;;;;;1011857;29;19911;-74
2022/09/12 02:04:22;;;;;;;;;;;;;;;;;;1011949;29;19949;-73
2022/09/12 02:04:52;;;;;;;;;;;;;;;;;;1012639;29;20493;-74
2022/09/12 02:05:22;;;;;;;;;;;;;;;;;;1009944;29;19918;-74
2022/09/12 02:05:53;;;;;;;;;;;;;;;;;;1009208;29;20189;-74
2022/09/12 02:06:23;;;;;;;;;;;;;;;;;;1011428;28;20521;-74
2022/09/12 02:06:53;;;;;;;;;;;;;;;;;;1010952;29;20033;-74
2022/09/12 02:07:23;;;;;;;;;;;;;;;;;;1012142;29;20174;-74
2022/09/12 02:07:55;;;;;;;;;;;;;;;;;;1012626;29;20395;-74
2022/09/12 02:08:26;;;;;;;;;;;;;;;;;;1012151;28;20813;-74
2022/09/12 02:08:56;;;;;;;;;;;;;;;;;;1011952;29;19914;-74
2022/09/12 02:09:26;;;;;;;;;;;;;;;;;;1012446;29;20346;-74
2022/09/12 02:09:57;;;;;;;;;;;;;;;;;;1012877;29;19914;-74
2022/09/12 02:10:27;;;;;;;;;;;;;;;;;;1012983;29;19914;-74
2022/09/12 02:10:58;;;;;;;;;;;;;;;;;;1013416;29;19914;-74
2022/09/12 02:11:28;;;;;;;;;;;;;;;;;;1013556;29;20450;-74
2022/09/12 02:11:58;;;;;;;;;;;;;;;;;;1013469;29;19926;-74
2022/09/12 02:12:28;;;;;;;;;;;;;;;;;;1016970;29;19984;-74
2022/09/12 02:12:59;;;;;;;;;;;;;;;;;;1018224;28;19921;-74
2022/09/12 02:13:29;;;;;;;;;;;;;;;;;;1017730;28;19911;-74
2022/09/12 02:14:00;;;;;;;;;;;;;;;;;;1015509;29;19914;-74
2022/09/12 02:14:30;;;;;;;;;;;;;;;;;;1014896;29;19961;-74
2022/09/12 02:15:01;;;;;;;;;;;;;;;;;;1016087;28;19993;-74
2022/09/12 02:15:31;;;;;;;;;;;;;;;;;;1019256;28;20129;-74
2022/09/12 02:16:02;;;;;;;;;;;;;;;;;;1017819;28;19922;-74
2022/09/12 02:16:32;;;;;;;;;;;;;;;;;;1015372;28;20222;-74
2022/09/12 02:17:02;;;;;;;;;;;;;;;;;;1016850;28;19914;-74
2022/09/12 02:17:36;;;;;;;;;;;;;;;;;;1014980;29;20961;-74
2022/09/12 02:18:06;;;;;;;;;;;;;;;;;;1019152;28;19964;-74
2022/09/12 02:18:37;;;;;;;;;;;;;;;;;;1019686;28;19913;-74
2022/09/12 02:19:07;;;;;;;;;;;;;;;;;;1021150;28;20376;-75
2022/09/12 02:19:38;;;;;;;;;;;;;;;;;;1021106;28;20357;-74
2022/09/12 02:20:08;;;;;;;;;;;;;;;;;;1014968;29;19922;-75
2022/09/12 02:20:39;;;;;;;;;;;;;;;;;;1015416;29;20017;-74
2022/09/12 02:21:09;;;;;;;;;;;;;;;;;;1017048;28;20341;-74
2022/09/12 02:21:39;;;;;;;;;;;;;;;;;;1019073;28;19967;-74
2022/09/12 02:22:09;;;;;;;;;;;;;;;;;;1017347;28;20485;-74
2022/09/12 02:22:40;;;;;;;;;;;;;;;;;;1014177;29;19914;-75
2022/09/12 02:23:10;;;;;;;;;;;;;;;;;;1012513;29;19911;-74
2022/09/12 02:23:42;;;;;;;;;;;;;;;;;;1008352;29;19942;-74
2022/09/12 02:24:12;;;;;;;;;;;;;;;;;;1009180;29;19918;-74
2022/09/12 02:24:43;;;;;;;;;;;;;;;;;;1012441;29;20752;-74
2022/09/12 02:25:13;;;;;;;;;;;;;;;;;;1012091;29;20333;-74
2022/09/12 02:25:44;;;;;;;;;;;;;;;;;;1016364;28;19917;-74
2022/09/12 02:26:14;;;;;;;;;;;;;;;;;;1017874;28;20562;-74
2022/09/12 02:26:45;;;;;;;;;;;;;;;;;;1016009;28;20242;-74
2022/09/12 02:27:16;;;;;;;;;;;;;;;;;;1015487;29;20434;-74
2022/09/12 02:27:47;;;;;;;;;;;;;;;;;;1012227;29;19985;-74
2022/09/12 02:28:17;;;;;;;;;;;;;;;;;;1015587;29;20536;-74
2022/09/12 02:28:48;;;;;;;;;;;;;;;;;;1014835;29;20005;-74
2022/09/12 02:29:18;;;;;;;;;;;;;;;;;;1017457;29;20427;-75
2022/09/12 02:29:48;;;;;;;;;;;;;;;;;;1015024;29;20384;-75
2022/09/12 02:30:19;;;;;;;;;;;;;;;;;;1008669;29;19966;-75
2022/09/12 02:30:49;;;;;;;;;;;;;;;;;;1010847;29;20223;-74
2022/09/12 02:31:19;;;;;;;;;;;;;;;;;;1015657;29;20477;-75
2022/09/12 02:31:50;;;;;;;;;;;;;;;;;;1014700;28;20521;-74
2022/09/12 02:32:21;;;;;;;;;;;;;;;;;;1017400;28;19963;-74
2022/09/12 02:32:51;;;;;;;;;;;;;;;;;;1015082;28;20905;-74
2022/09/12 02:33:21;;;;;;;;;;;;;;;;;;1015328;29;20055;-74
2022/09/12 02:33:52;;;;;;;;;;;;;;;;;;1017749;28;20194;-73
2022/09/12 02:34:22;;;;;;;;;;;;;;;;;;1016862;29;20355;-74
2022/09/12 02:34:52;;;;;;;;;;;;;;;;;;1022268;28;20004;-74
2022/09/12 02:35:22;;;;;;;;;;;;;;;;;;1021872;28;20765;-74
2022/09/12 02:35:53;;;;;;;;;;;;;;;;;;1015509;29;19914;-74
2022/09/12 02:36:23;;;;;;;;;;;;;;;;;;1015401;29;20008;-74
2022/09/12 02:36:53;;;;;;;;;;;;;;;;;;1015690;29;19962;-74
2022/09/12 02:37:24;;;;;;;;;;;;;;;;;;1016377;29;20832;-75
2022/09/12 02:37:55;;;;;;;;;;;;;;;;;;1016850;29;19915;-74
2022/09/12 02:38:25;;;;;;;;;;;;;;;;;;1017129;28;19915;-74
2022/09/12 02:38:56;;;;;;;;;;;;;;;;;;1020929;28;19941;-74
2022/09/12 02:39:26;;;;;;;;;;;;;;;;;;1017221;28;20033;-74
2022/09/12 02:39:56;;;;;;;;;;;;;;;;;;1016764;29;19929;-74
2022/09/12 02:40:27;;;;;;;;;;;;;;;;;;1016738;29;19914;-75
2022/09/12 02:40:57;;;;;;;;;;;;;;;;;;1012620;29;19985;-74
2022/09/12 02:41:27;;;;;;;;;;;;;;;;;;1018153;28;20549;-75
2022/09/12 02:41:58;;;;;;;;;;;;;;;;;;1018860;29;20383;-75
2022/09/12 02:42:28;;;;;;;;;;;;;;;;;;1017191;29;20190;-74
2022/09/12 02:42:58;;;;;;;;;;;;;;;;;;1022038;28;20367;-74
2022/09/12 02:43:28;;;;;;;;;;;;;;;;;;1016357;29;19921;-75
2022/09/12 02:43:59;;;;;;;;;;;;;;;;;;1016356;29;20020;-75
2022/09/12 02:44:29;;;;;;;;;;;;;;;;;;1016370;29;19915;-75
2022/09/12 02:45:00;;;;;;;;;;;;;;;;;;1014368;29;19937;-74
2022/09/12 02:45:33;;;;;;;;;;;;;;;;;;1015943;29;19911;-74
2022/09/12 02:46:03;;;;;;;;;;;;;;;;;;1018150;29;19911;-74
2022/09/12 02:46:33;;;;;;;;;;;;;;;;;;1016115;29;19915;-74
2022/09/12 02:47:03;;;;;;;;;;;;;;;;;;1020218;28;22148;-74
2022/09/12 02:47:34;;;;;;;;;;;;;;;;;;1020436;28;20298;-75
2022/09/12 02:48:04;;;;;;;;;;;;;;;;;;1014780;29;20739;-74
2022/09/12 02:48:34;;;;;;;;;;;;;;;;;;1015132;29;20434;-74
2022/09/12 02:49:05;;;;;;;;;;;;;;;;;;1014346;29;20013;-75
2022/09/12 02:49:35;;;;;;;;;;;;;;;;;;1012960;28;19938;-75
2022/09/12 02:50:06;;;;;;;;;;;;;;;;;;1017289;28;19934;-74
2022/09/12 02:50:37;;;;;;;;;;;;;;;;;;1013545;29;19978;-74
2022/09/12 02:51:07;;;;;;;;;;;;;;;;;;1014191;29;19918;-75
2022/09/12 02:51:38;;;;;;;;;;;;;;;;;;1010816;29;19990;-75
2022/09/12 02:52:08;;;;;;;;;;;;;;;;;;1010580;29;20463;-75
2022/09/12 02:52:38;;;;;;;;;;;;;;;;;;1015894;29;20502;-74
2022/09/12 02:53:09;;;;;;;;;;;;;;;;;;1014178;29;19921;-74
2022/09/12 02:53:39;;;;;;;;;;;;;;;;;;1014118;29;19996;-74
2022/09/12 02:54:10;;;;;;;;;;;;;;;;;;1014960;29;19917;-75
2022/09/12 02:54:41;;;;;;;;;;;;;;;;;;1016186;29;19911;-75
2022/09/12 02:55:11;;;;;;;;;;;;;;;;;;1013640;29;19914;-74
2022/09/12 02:55:42;;;;;;;;;;;;;;;;;;1015009;28;19915;-75
2022/09/12 02:56:13;;;;;;;;;;;;;;;;;;1012419;29;19922;-75
2022/09/12 02:56:43;;;;;;;;;;;;;;;;;;1012822;29;20467;-74
2022/09/12 02:57:13;;;;;;;;;;;;;;;;;;1013969;28;19910;-75
2022/09/12 02:57:44;;;;;;;;;;;;;;;;;;1012778;29;20352;-74
2022/09/12 02:58:14;;;;;;;;;;;;;;;;;;1007978;29;19942;-74
2022/09/12 02:58:45;;;;;;;;;;;;;;;;;;1009980;29;19918;-74
2022/09/12 02:59:15;;;;;;;;;;;;;;;;;;1010924;29;19961;-74
2022/09/12 02:59:46;;;;;;;;;;;;;;;;;;1015986;29;19993;-75
2022/09/12 03:00:17;;;;;;;;;;;;;;;;;;1017534;29;19910;-74
2022/09/12 03:00:48;;;;;;;;;;;;;;;;;;1013069;28;19922;-74
2022/09/12 03:01:19;;;;;;;;;;;;;;;;;;1007323;29;20487;-73
2022/09/12 03:01:50;;;;;;;;;;;;;;;;;;1008987;29;20108;-73
2022/09/12 03:02:20;;;;;;;;;;;;;;;;;;1014625;28;20232;-73
2022/09/12 03:02:51;;;;;;;;;;;;;;;;;;1012132;29;20149;-73
2022/09/12 03:03:22;;;;;;;;;;;;;;;;;;1015659;28;19922;-75
2022/09/12 03:03:52;;;;;;;;;;;;;;;;;;1021854;28;20545;-75
2022/09/12 03:04:22;;;;;;;;;;;;;;;;;;1015052;28;20523;-75
2022/09/12 03:04:53;;;;;;;;;;;;;;;;;;1015773;29;20009;-76
2022/09/12 03:05:24;;;;;;;;;;;;;;;;;;1014995;29;19921;-77
2022/09/12 03:05:54;;;;;;;;;;;;;;;;;;1017206;29;19917;-76
2022/09/12 03:06:25;;;;;;;;;;;;;;;;;;1015683;29;19956;-75
2022/09/12 03:06:57;;;;;;;;;;;;;;;;;;1018359;28;19918;-75
2022/09/12 03:07:27;;;;;;;;;;;;;;;;;;1017707;29;19915;-75
2022/09/12 03:07:58;;;;;;;;;;;;;;;;;;1013464;29;20005;-76
2022/09/12 03:08:31;;;;;;;;;;;;;;;;;;1013147;29;19961;-76
2022/09/12 03:09:03;;;;;;;;;;;;;;;;;;1013751;29;19911;-76
2022/09/12 03:09:33;;;;;;;;;;;;;;;;;;1016399;29;20481;-76
2022/09/12 03:10:04;;;;;;;;;;;;;;;;;;1016808;28;19925;-75
2022/09/12 03:10:34;;;;;;;;;;;;;;;;;;1008933;29;19926;-77
2022/09/12 03:11:18;;;;;;;;;;;;;;;;;;1051409;23;20397;-76
2022/09/12 03:11:49;;;;;;;;;;;;;;;;;;1052240;23;19915;-76
2022/09/12 03:12:22;;;;;;;;;;;;;;;;;;1050968;23;19927;-75
2022/09/12 03:13:07;;;;;;;;;;;;;;;;;;1009843;29;20791;-77
2022/09/12 03:13:39;;;;;;;;;;;;;;;;;;1008052;29;19952;-76
2022/09/12 03:14:10;;;;;;;;;;;;;;;;;;1009372;29;20459;-74
2022/09/12 03:14:41;;;;;;;;;;;;;;;;;;1008286;29;20417;-76
2022/09/12 03:15:12;;;;;;;;;;;;;;;;;;1012878;29;19946;-75
2022/09/12 03:15:43;;;;;;;;;;;;;;;;;;1014551;29;20420;-76
2022/09/12 03:16:16;;;;;;;;;;;;;;;;;;1010226;29;20446;-76
2022/09/12 03:16:47;;;;;;;;;;;;;;;;;;1014102;29;20821;-76
2022/09/12 03:17:19;;;;;;;;;;;;;;;;;;1010301;29;19989;-77
2022/09/12 03:17:50;;;;;;;;;;;;;;;;;;1088975;23;20618;-77
2022/09/12 03:18:23;;;;;;;;;;;;;;;;;;1015644;29;20458;-79
2022/09/12 03:18:53;;;;;;;;;;;;;;;;;;1017755;29;19918;-78
2022/09/12 03:19:24;;;;;;;;;;;;;;;;;;1020066;29;20157;-78
2022/09/12 03:19:54;;;;;;;;;;;;;;;;;;1016371;29;20483;-77
2022/09/12 03:20:25;;;;;;;;;;;;;;;;;;1014644;29;19923;-77
2022/09/12 03:20:55;;;;;;;;;;;;;;;;;;1018416;29;20259;-78
2022/09/12 03:21:25;;;;;;;;;;;;;;;;;;1031804;23;19946;-75
2022/09/12 03:21:56;;;;;;;;;;;;;;;;;;1014786;28;19987;-76
2022/09/12 03:22:27;;;;;;;;;;;;;;;;;;1011752;29;19925;-76
2022/09/12 03:23:22;;;;;;;;;;;;;;;;;;1006716;29;21095;-75
2022/09/12 03:23:53;;;;;;;;;;;;;;;;;;1012391;29;19919;-77
2022/09/12 03:25:06;;;;;;;;;;;;;;;;;;354007;26;20205;-77
2022/09/12 03:25:36;;;;;;;;;;;;;;;;;;1012822;28;20415;-76
2022/09/12 03:26:06;;;;;;;;;;;;;;;;;;1011015;29;19917;-77
2022/09/12 03:26:37;;;;;;;;;;;;;;;;;;1016585;29;19991;-76
2022/09/12 03:27:07;;;;;;;;;;;;;;;;;;1010917;29;19911;-78
2022/09/12 03:27:38;;;;;;;;;;;;;;;;;;1011296;29;19982;-77
2022/09/12 03:28:08;;;;;;;;;;;;;;;;;;1014220;29;19922;-77
2022/09/12 03:28:38;;;;;;;;;;;;;;;;;;1015010;29;19921;-77
2022/09/12 03:29:09;;;;;;;;;;;;;;;;;;1013423;29;19914;-77
2022/09/12 03:29:40;;;;;;;;;;;;;;;;;;1014437;29;19910;-77